sensor_id;sensor_type;location;lat;lon;timestamp;P1;durP1;ratioP1;P2;durP2;ratioP2
30243;SDS011;61465;53.652;9.792;2022-09-09T00:01:14;78.35;;;29.42;;
30243;SDS011;61465;53.652;9.792;2022-09-09T00:04:05;81.03;;;29.83;;
30243;SDS011;61465;53.652;9.792;2022-09-09T00:09:12;70.85;;;28.90;;
30243;SDS011;61465;53.652;9.792;2022-09-09T00:20:18;69.15;;;28.67;;
30243;SDS011;61465;53.652;9.792;2022-09-09T00:22:53;70.78;;;27.02;;
30243;SDS011;61465;53.652;9.792;2022-09-09T00:25:50;66.43;;;28.38;;
30243;SDS011;61465;53.652;9.792;2022-09-09T00:28:27;63.45;;;26.98;;
30243;SDS011;61465;53.652;9.792;2022-09-09T00:30:59;66.03;;;26.83;;
30243;SDS011;61465;53.652;9.792;2022-09-09T00:33:33;55.88;;;24.45;;
30243;SDS011;61465;53.652;9.792;2022-09-09T00:36:00;61.53;;;26.85;;
30243;SDS011;61465;53.652;9.792;2022-09-09T00:38:28;71.68;;;27.48;;
30243;SDS011;61465;53.652;9.792;2022-09-09T00:41:19;68.72;;;26.90;;
30243;SDS011;61465;53.652;9.792;2022-09-09T00:49:25;62.10;;;24.55;;
30243;SDS011;61465;53.652;9.792;2022-09-09T00:52:15;64.28;;;25.52;;
30243;SDS011;61465;53.652;9.792;2022-09-09T00:57:33;58.72;;;24.85;;
30243;SDS011;61465;53.652;9.792;2022-09-09T01:00:20;64.03;;;26.25;;
30243;SDS011;61465;53.652;9.792;2022-09-09T01:02:59;62.10;;;24.73;;
30243;SDS011;61465;53.652;9.792;2022-09-09T01:06:00;57.85;;;24.05;;
30243;SDS011;61465;53.652;9.792;2022-09-09T01:14:38;53.55;;;22.98;;
30243;SDS011;61465;53.652;9.792;2022-09-09T01:17:18;49.30;;;21.90;;
30243;SDS011;61465;53.652;9.792;2022-09-09T01:22:40;54.42;;;24.27;;
30243;SDS011;61465;53.652;9.792;2022-09-09T01:25:22;49.95;;;22.38;;
30243;SDS011;61465;53.652;9.792;2022-09-09T01:28:14;62.28;;;23.92;;
30243;SDS011;61465;53.652;9.792;2022-09-09T01:30:44;48.13;;;21.95;;
30243;SDS011;61465;53.652;9.792;2022-09-09T01:33:12;57.85;;;24.02;;
30243;SDS011;61465;53.652;9.792;2022-09-09T01:38:25;52.60;;;22.90;;
30243;SDS011;61465;53.652;9.792;2022-09-09T01:40:52;50.00;;;22.27;;
30243;SDS011;61465;53.652;9.792;2022-09-09T01:43:21;51.33;;;23.42;;
30243;SDS011;61465;53.652;9.792;2022-09-09T01:45:49;50.40;;;21.90;;
30243;SDS011;61465;53.652;9.792;2022-09-09T01:48:18;51.33;;;22.95;;
30243;SDS011;61465;53.652;9.792;2022-09-09T01:50:45;58.47;;;24.40;;
30243;SDS011;61465;53.652;9.792;2022-09-09T01:53:10;47.83;;;22.38;;
30243;SDS011;61465;53.652;9.792;2022-09-09T01:55:38;44.35;;;20.40;;
30243;SDS011;61465;53.652;9.792;2022-09-09T02:00:41;41.97;;;19.42;;
30243;SDS011;61465;53.652;9.792;2022-09-09T02:03:25;44.80;;;20.02;;
30243;SDS011;61465;53.652;9.792;2022-09-09T02:08:42;40.05;;;18.27;;
30243;SDS011;61465;53.652;9.792;2022-09-09T02:11:19;40.10;;;19.75;;
30243;SDS011;61465;53.652;9.792;2022-09-09T02:13:51;40.90;;;19.40;;
30243;SDS011;61465;53.652;9.792;2022-09-09T02:19:37;42.58;;;19.83;;
30243;SDS011;61465;53.652;9.792;2022-09-09T02:21:50;43.20;;;18.13;;
30243;SDS011;61465;53.652;9.792;2022-09-09T02:24:18;40.58;;;20.17;;
30243;SDS011;61465;53.652;9.792;2022-09-09T02:26:44;40.10;;;19.25;;
30243;SDS011;61465;53.652;9.792;2022-09-09T02:29:14;37.63;;;17.90;;
30243;SDS011;61465;53.652;9.792;2022-09-09T02:31:47;40.15;;;19.15;;
30243;SDS011;61465;53.652;9.792;2022-09-09T02:34:16;38.63;;;17.50;;
30243;SDS011;61465;53.652;9.792;2022-09-09T02:36:45;40.80;;;19.27;;
30243;SDS011;61465;53.652;9.792;2022-09-09T02:39:12;38.53;;;17.50;;
30243;SDS011;61465;53.652;9.792;2022-09-09T02:41:41;41.42;;;19.65;;
30243;SDS011;61465;53.652;9.792;2022-09-09T02:44:15;38.50;;;18.20;;
30243;SDS011;61465;53.652;9.792;2022-09-09T02:47:04;39.00;;;18.63;;
30243;SDS011;61465;53.652;9.792;2022-09-09T02:52:45;42.42;;;18.73;;
30243;SDS011;61465;53.652;9.792;2022-09-09T02:55:17;34.75;;;17.92;;
30243;SDS011;61465;53.652;9.792;2022-09-09T02:57:54;36.13;;;17.75;;
30243;SDS011;61465;53.652;9.792;2022-09-09T03:00:25;33.08;;;17.00;;
30243;SDS011;61465;53.652;9.792;2022-09-09T03:02:52;34.83;;;17.17;;
30243;SDS011;61465;53.652;9.792;2022-09-09T03:05:19;36.20;;;16.95;;
30243;SDS011;61465;53.652;9.792;2022-09-09T03:07:46;37.95;;;17.38;;
30243;SDS011;61465;53.652;9.792;2022-09-09T03:10:12;35.80;;;16.73;;
30243;SDS011;61465;53.652;9.792;2022-09-09T03:12:38;37.40;;;18.13;;
30243;SDS011;61465;53.652;9.792;2022-09-09T03:15:04;37.65;;;17.85;;
30243;SDS011;61465;53.652;9.792;2022-09-09T03:17:30;34.80;;;18.08;;
30243;SDS011;61465;53.652;9.792;2022-09-09T03:19:56;39.97;;;16.98;;
30243;SDS011;61465;53.652;9.792;2022-09-09T03:22:23;39.38;;;18.50;;
30243;SDS011;61465;53.652;9.792;2022-09-09T03:24:50;41.55;;;19.27;;
30243;SDS011;61465;53.652;9.792;2022-09-09T03:27:16;36.77;;;17.63;;
30243;SDS011;61465;53.652;9.792;2022-09-09T03:29:42;38.75;;;18.33;;
30243;SDS011;61465;53.652;9.792;2022-09-09T03:32:09;36.03;;;17.02;;
30243;SDS011;61465;53.652;9.792;2022-09-09T03:34:35;39.28;;;18.55;;
30243;SDS011;61465;53.652;9.792;2022-09-09T03:37:04;43.15;;;18.15;;
30243;SDS011;61465;53.652;9.792;2022-09-09T03:39:30;42.35;;;19.00;;
30243;SDS011;61465;53.652;9.792;2022-09-09T03:41:56;40.13;;;19.20;;
30243;SDS011;61465;53.652;9.792;2022-09-09T03:44:21;37.90;;;17.58;;
30243;SDS011;61465;53.652;9.792;2022-09-09T03:46:47;35.15;;;16.38;;
30243;SDS011;61465;53.652;9.792;2022-09-09T03:49:12;38.05;;;18.40;;
30243;SDS011;61465;53.652;9.792;2022-09-09T03:51:38;40.20;;;18.77;;
30243;SDS011;61465;53.652;9.792;2022-09-09T03:54:05;32.08;;;15.77;;
30243;SDS011;61465;53.652;9.792;2022-09-09T03:56:33;33.00;;;15.98;;
30243;SDS011;61465;53.652;9.792;2022-09-09T03:58:59;37.40;;;16.95;;
30243;SDS011;61465;53.652;9.792;2022-09-09T04:01:24;34.72;;;17.42;;
30243;SDS011;61465;53.652;9.792;2022-09-09T04:03:50;34.65;;;16.60;;
30243;SDS011;61465;53.652;9.792;2022-09-09T04:06:17;33.78;;;15.38;;
30243;SDS011;61465;53.652;9.792;2022-09-09T04:08:44;34.80;;;15.65;;
30243;SDS011;61465;53.652;9.792;2022-09-09T04:11:13;35.85;;;15.90;;
30243;SDS011;61465;53.652;9.792;2022-09-09T04:13:40;32.55;;;14.90;;
30243;SDS011;61465;53.652;9.792;2022-09-09T04:16:07;33.35;;;15.40;;
30243;SDS011;61465;53.652;9.792;2022-09-09T04:18:33;32.28;;;16.00;;
30243;SDS011;61465;53.652;9.792;2022-09-09T04:20:59;33.20;;;16.17;;
30243;SDS011;61465;53.652;9.792;2022-09-09T04:23:25;37.05;;;17.63;;
30243;SDS011;61465;53.652;9.792;2022-09-09T04:25:54;29.52;;;14.32;;
30243;SDS011;61465;53.652;9.792;2022-09-09T04:28:21;28.08;;;14.32;;
30243;SDS011;61465;53.652;9.792;2022-09-09T04:30:48;30.00;;;14.73;;
30243;SDS011;61465;53.652;9.792;2022-09-09T04:33:14;29.23;;;14.68;;
30243;SDS011;61465;53.652;9.792;2022-09-09T04:35:44;32.55;;;15.85;;
30243;SDS011;61465;53.652;9.792;2022-09-09T04:38:12;32.65;;;15.55;;
30243;SDS011;61465;53.652;9.792;2022-09-09T04:40:37;26.85;;;14.45;;
30243;SDS011;61465;53.652;9.792;2022-09-09T04:43:07;30.00;;;15.40;;
30243;SDS011;61465;53.652;9.792;2022-09-09T04:45:33;34.63;;;16.90;;
30243;SDS011;61465;53.652;9.792;2022-09-09T04:47:59;32.35;;;16.35;;
30243;SDS011;61465;53.652;9.792;2022-09-09T04:50:25;28.45;;;15.27;;
30243;SDS011;61465;53.652;9.792;2022-09-09T04:52:50;29.23;;;14.82;;
30243;SDS011;61465;53.652;9.792;2022-09-09T04:55:16;27.58;;;14.35;;
30243;SDS011;61465;53.652;9.792;2022-09-09T04:57:42;36.17;;;16.40;;
30243;SDS011;61465;53.652;9.792;2022-09-09T05:00:08;33.28;;;16.08;;
30243;SDS011;61465;53.652;9.792;2022-09-09T05:02:38;36.03;;;17.42;;
30243;SDS011;61465;53.652;9.792;2022-09-09T05:05:04;37.63;;;16.30;;
30243;SDS011;61465;53.652;9.792;2022-09-09T05:07:30;30.58;;;15.20;;
30243;SDS011;61465;53.652;9.792;2022-09-09T05:09:56;31.52;;;14.60;;
30243;SDS011;61465;53.652;9.792;2022-09-09T05:12:22;29.17;;;15.20;;
30243;SDS011;61465;53.652;9.792;2022-09-09T05:14:50;28.60;;;14.07;;
30243;SDS011;61465;53.652;9.792;2022-09-09T05:17:18;30.23;;;13.73;;
30243;SDS011;61465;53.652;9.792;2022-09-09T05:19:43;24.33;;;13.70;;
30243;SDS011;61465;53.652;9.792;2022-09-09T05:22:09;28.70;;;14.65;;
30243;SDS011;61465;53.652;9.792;2022-09-09T05:24:37;24.98;;;12.85;;
30243;SDS011;61465;53.652;9.792;2022-09-09T05:27:03;25.73;;;13.00;;
30243;SDS011;61465;53.652;9.792;2022-09-09T05:29:31;27.70;;;13.52;;
30243;SDS011;61465;53.652;9.792;2022-09-09T05:31:58;24.48;;;14.60;;
30243;SDS011;61465;53.652;9.792;2022-09-09T05:34:24;32.50;;;15.55;;
30243;SDS011;61465;53.652;9.792;2022-09-09T05:36:49;30.77;;;14.77;;
30243;SDS011;61465;53.652;9.792;2022-09-09T05:39:17;25.77;;;13.52;;
30243;SDS011;61465;53.652;9.792;2022-09-09T05:41:42;26.60;;;13.65;;
30243;SDS011;61465;53.652;9.792;2022-09-09T05:44:08;27.85;;;12.60;;
30243;SDS011;61465;53.652;9.792;2022-09-09T05:46:33;25.80;;;13.10;;
30243;SDS011;61465;53.652;9.792;2022-09-09T05:48:59;25.50;;;13.95;;
30243;SDS011;61465;53.652;9.792;2022-09-09T05:51:25;22.37;;;11.90;;
30243;SDS011;61465;53.652;9.792;2022-09-09T05:53:53;22.77;;;11.57;;
30243;SDS011;61465;53.652;9.792;2022-09-09T05:56:21;23.85;;;10.55;;
30243;SDS011;61465;53.652;9.792;2022-09-09T05:58:49;21.00;;;11.25;;
30243;SDS011;61465;53.652;9.792;2022-09-09T06:01:18;19.10;;;10.53;;
30243;SDS011;61465;53.652;9.792;2022-09-09T06:03:47;19.73;;;10.75;;
30243;SDS011;61465;53.652;9.792;2022-09-09T06:06:14;19.48;;;10.07;;
30243;SDS011;61465;53.652;9.792;2022-09-09T06:08:43;19.52;;;9.30;;
30243;SDS011;61465;53.652;9.792;2022-09-09T06:11:14;17.17;;;8.88;;
30243;SDS011;61465;53.652;9.792;2022-09-09T06:13:41;16.83;;;8.63;;
30243;SDS011;61465;53.652;9.792;2022-09-09T06:16:08;21.05;;;8.63;;
30243;SDS011;61465;53.652;9.792;2022-09-09T06:18:40;16.50;;;7.90;;
30243;SDS011;61465;53.652;9.792;2022-09-09T06:21:08;16.85;;;8.00;;
30243;SDS011;61465;53.652;9.792;2022-09-09T06:23:41;17.65;;;8.23;;
30243;SDS011;61465;53.652;9.792;2022-09-09T06:26:09;16.20;;;8.57;;
30243;SDS011;61465;53.652;9.792;2022-09-09T06:28:37;16.13;;;8.48;;
30243;SDS011;61465;53.652;9.792;2022-09-09T06:31:04;19.90;;;8.50;;
30243;SDS011;61465;53.652;9.792;2022-09-09T06:33:35;12.90;;;7.57;;
30243;SDS011;61465;53.652;9.792;2022-09-09T06:36:06;12.27;;;7.55;;
30243;SDS011;61465;53.652;9.792;2022-09-09T06:38:39;12.00;;;7.30;;
30243;SDS011;61465;53.652;9.792;2022-09-09T06:41:06;21.08;;;8.65;;
30243;SDS011;61465;53.652;9.792;2022-09-09T06:43:36;14.35;;;6.93;;
30243;SDS011;61465;53.652;9.792;2022-09-09T06:48:29;11.65;;;7.68;;
30243;SDS011;61465;53.652;9.792;2022-09-09T06:51:01;13.73;;;7.05;;
30243;SDS011;61465;53.652;9.792;2022-09-09T06:53:43;11.40;;;6.93;;
30243;SDS011;61465;53.652;9.792;2022-09-09T06:58:39;12.50;;;7.15;;
30243;SDS011;61465;53.652;9.792;2022-09-09T07:01:15;13.50;;;7.65;;
30243;SDS011;61465;53.652;9.792;2022-09-09T07:03:42;10.80;;;6.45;;
30243;SDS011;61465;53.652;9.792;2022-09-09T07:06:14;11.05;;;6.82;;
30243;SDS011;61465;53.652;9.792;2022-09-09T07:08:48;15.27;;;6.70;;
30243;SDS011;61465;53.652;9.792;2022-09-09T07:11:18;14.13;;;7.40;;
30243;SDS011;61465;53.652;9.792;2022-09-09T07:13:48;9.45;;;6.47;;
30243;SDS011;61465;53.652;9.792;2022-09-09T07:16:18;12.02;;;6.00;;
30243;SDS011;61465;53.652;9.792;2022-09-09T07:18:45;12.23;;;6.93;;
30243;SDS011;61465;53.652;9.792;2022-09-09T07:21:12;15.03;;;7.00;;
30243;SDS011;61465;53.652;9.792;2022-09-09T07:23:39;12.63;;;6.63;;
30243;SDS011;61465;53.652;9.792;2022-09-09T07:26:16;14.25;;;6.22;;
30243;SDS011;61465;53.652;9.792;2022-09-09T07:28:44;10.15;;;6.72;;
30243;SDS011;61465;53.652;9.792;2022-09-09T07:31:20;9.20;;;5.45;;
30243;SDS011;61465;53.652;9.792;2022-09-09T07:33:47;11.70;;;7.03;;
30243;SDS011;61465;53.652;9.792;2022-09-09T07:36:17;8.52;;;5.82;;
30243;SDS011;61465;53.652;9.792;2022-09-09T07:38:49;9.13;;;5.80;;
30243;SDS011;61465;53.652;9.792;2022-09-09T07:41:21;13.27;;;5.85;;
30243;SDS011;61465;53.652;9.792;2022-09-09T07:43:53;8.00;;;5.43;;
30243;SDS011;61465;53.652;9.792;2022-09-09T07:46:24;8.40;;;5.60;;
30243;SDS011;61465;53.652;9.792;2022-09-09T07:48:51;11.65;;;5.28;;
30243;SDS011;61465;53.652;9.792;2022-09-09T07:51:40;10.90;;;5.95;;
30243;SDS011;61465;53.652;9.792;2022-09-09T07:54:06;10.25;;;5.15;;
30243;SDS011;61465;53.652;9.792;2022-09-09T07:56:37;10.32;;;5.72;;
30243;SDS011;61465;53.652;9.792;2022-09-09T07:59:04;7.65;;;5.57;;
30243;SDS011;61465;53.652;9.792;2022-09-09T08:01:32;11.80;;;5.68;;
30243;SDS011;61465;53.652;9.792;2022-09-09T08:04:05;10.05;;;5.65;;
30243;SDS011;61465;53.652;9.792;2022-09-09T08:06:42;9.13;;;5.40;;
30243;SDS011;61465;53.652;9.792;2022-09-09T08:09:11;12.75;;;5.05;;
30243;SDS011;61465;53.652;9.792;2022-09-09T08:11:37;9.23;;;5.73;;
30243;SDS011;61465;53.652;9.792;2022-09-09T08:14:04;7.15;;;4.60;;
30243;SDS011;61465;53.652;9.792;2022-09-09T08:18:57;6.97;;;4.25;;
30243;SDS011;61465;53.652;9.792;2022-09-09T08:21:25;9.48;;;5.50;;
30243;SDS011;61465;53.652;9.792;2022-09-09T08:23:53;12.05;;;4.97;;
30243;SDS011;61465;53.652;9.792;2022-09-09T08:26:21;6.85;;;4.05;;
30243;SDS011;61465;53.652;9.792;2022-09-09T08:28:51;6.50;;;4.25;;
30243;SDS011;61465;53.652;9.792;2022-09-09T08:31:23;8.23;;;5.05;;
30243;SDS011;61465;53.652;9.792;2022-09-09T08:33:50;9.43;;;5.40;;
30243;SDS011;61465;53.652;9.792;2022-09-09T08:36:17;8.77;;;4.73;;
30243;SDS011;61465;53.652;9.792;2022-09-09T08:38:51;10.38;;;4.80;;
30243;SDS011;61465;53.652;9.792;2022-09-09T08:44:30;13.10;;;6.55;;
30243;SDS011;61465;53.652;9.792;2022-09-09T08:50:02;8.98;;;6.32;;
30243;SDS011;61465;53.652;9.792;2022-09-09T08:52:40;8.98;;;6.15;;
30243;SDS011;61465;53.652;9.792;2022-09-09T08:55:22;7.57;;;5.72;;
30243;SDS011;61465;53.652;9.792;2022-09-09T08:57:49;8.55;;;6.13;;
30243;SDS011;61465;53.652;9.792;2022-09-09T09:00:17;7.82;;;5.70;;
30243;SDS011;61465;53.652;9.792;2022-09-09T09:05:37;7.32;;;5.65;;
30243;SDS011;61465;53.652;9.792;2022-09-09T09:10:47;10.32;;;5.13;;
30243;SDS011;61465;53.652;9.792;2022-09-09T09:13:17;10.02;;;5.90;;
30243;SDS011;61465;53.652;9.792;2022-09-09T09:15:58;6.68;;;4.20;;
30243;SDS011;61465;53.652;9.792;2022-09-09T09:18:29;5.68;;;3.80;;
30243;SDS011;61465;53.652;9.792;2022-09-09T09:24:12;5.47;;;3.95;;
30243;SDS011;61465;53.652;9.792;2022-09-09T09:26:31;7.13;;;4.03;;
30243;SDS011;61465;53.652;9.792;2022-09-09T09:29:00;6.75;;;3.78;;
30243;SDS011;61465;53.652;9.792;2022-09-09T09:31:34;9.57;;;3.65;;
30243;SDS011;61465;53.652;9.792;2022-09-09T09:34:00;8.03;;;5.43;;
30243;SDS011;61465;53.652;9.792;2022-09-09T09:36:33;14.48;;;5.90;;
30243;SDS011;61465;53.652;9.792;2022-09-09T09:39:03;7.68;;;3.72;;
30243;SDS011;61465;53.652;9.792;2022-09-09T09:41:40;5.72;;;3.40;;
30243;SDS011;61465;53.652;9.792;2022-09-09T09:46:45;5.95;;;2.70;;
30243;SDS011;61465;53.652;9.792;2022-09-09T09:49:11;3.38;;;2.83;;
30243;SDS011;61465;53.652;9.792;2022-09-09T09:51:38;2.50;;;2.08;;
30243;SDS011;61465;53.652;9.792;2022-09-09T09:54:11;4.60;;;2.50;;
30243;SDS011;61465;53.652;9.792;2022-09-09T09:56:40;4.70;;;2.72;;
30243;SDS011;61465;53.652;9.792;2022-09-09T09:59:19;4.38;;;2.28;;
30243;SDS011;61465;53.652;9.792;2022-09-09T10:01:53;7.95;;;2.35;;
30243;SDS011;61465;53.652;9.792;2022-09-09T10:04:22;3.27;;;2.00;;
30243;SDS011;61465;53.652;9.792;2022-09-09T10:06:48;3.25;;;1.85;;
30243;SDS011;61465;53.652;9.792;2022-09-09T10:11:54;2.72;;;1.70;;
30243;SDS011;61465;53.652;9.792;2022-09-09T10:19:42;3.47;;;1.80;;
30243;SDS011;61465;53.652;9.792;2022-09-09T10:22:27;2.70;;;1.67;;
30243;SDS011;61465;53.652;9.792;2022-09-09T10:33:16;2.40;;;0.85;;
30243;SDS011;61465;53.652;9.792;2022-09-09T10:38:40;1.65;;;0.70;;
30243;SDS011;61465;53.652;9.792;2022-09-09T10:41:15;2.55;;;0.60;;
30243;SDS011;61465;53.652;9.792;2022-09-09T10:55:23;1.27;;;0.63;;
30243;SDS011;61465;53.652;9.792;2022-09-09T10:57:52;3.15;;;0.80;;
30243;SDS011;61465;53.652;9.792;2022-09-09T11:03:01;2.38;;;1.00;;
30243;SDS011;61465;53.652;9.792;2022-09-09T11:05:47;1.98;;;1.05;;
30243;SDS011;61465;53.652;9.792;2022-09-09T11:18:48;3.25;;;1.25;;
30243;SDS011;61465;53.652;9.792;2022-09-09T11:21:20;3.60;;;1.00;;
30243;SDS011;61465;53.652;9.792;2022-09-09T11:23:53;1.45;;;0.95;;
30243;SDS011;61465;53.652;9.792;2022-09-09T11:26:30;1.63;;;0.90;;
30243;SDS011;61465;53.652;9.792;2022-09-09T11:29:09;2.08;;;1.17;;
30243;SDS011;61465;53.652;9.792;2022-09-09T11:32:06;2.22;;;1.10;;
30243;SDS011;61465;53.652;9.792;2022-09-09T11:40:42;2.03;;;1.83;;
30243;SDS011;61465;53.652;9.792;2022-09-09T11:43:10;2.70;;;1.48;;
30243;SDS011;61465;53.652;9.792;2022-09-09T11:45:39;3.28;;;1.60;;
30243;SDS011;61465;53.652;9.792;2022-09-09T11:48:22;2.30;;;1.13;;
30243;SDS011;61465;53.652;9.792;2022-09-09T11:51:07;4.00;;;1.30;;
30243;SDS011;61465;53.652;9.792;2022-09-09T11:56:31;1.52;;;1.10;;
30243;SDS011;61465;53.652;9.792;2022-09-09T11:59:24;1.80;;;1.20;;
30243;SDS011;61465;53.652;9.792;2022-09-09T12:01:56;4.28;;;1.30;;
30243;SDS011;61465;53.652;9.792;2022-09-09T12:04:27;3.20;;;1.42;;
30243;SDS011;61465;53.652;9.792;2022-09-09T12:07:05;3.08;;;1.25;;
30243;SDS011;61465;53.652;9.792;2022-09-09T12:09:58;3.05;;;1.45;;
30243;SDS011;61465;53.652;9.792;2022-09-09T12:12:43;3.47;;;1.40;;
30243;SDS011;61465;53.652;9.792;2022-09-09T12:17:44;2.40;;;1.47;;
30243;SDS011;61465;53.652;9.792;2022-09-09T12:25:48;8.98;;;1.70;;
30243;SDS011;61465;53.652;9.792;2022-09-09T12:31:10;8.82;;;3.05;;
30243;SDS011;61465;53.652;9.792;2022-09-09T12:33:45;4.25;;;1.52;;
30243;SDS011;61465;53.652;9.792;2022-09-09T12:36:18;3.97;;;1.23;;
30243;SDS011;61465;53.652;9.792;2022-09-09T12:38:47;3.17;;;1.40;;
30243;SDS011;61465;53.652;9.792;2022-09-09T12:41:19;1.17;;;1.08;;
30243;SDS011;61465;53.652;9.792;2022-09-09T12:43:50;3.28;;;1.35;;
30243;SDS011;61465;53.652;9.792;2022-09-09T12:46:31;3.67;;;1.67;;
30243;SDS011;61465;53.652;9.792;2022-09-09T12:52:02;3.55;;;1.77;;
30243;SDS011;61465;53.652;9.792;2022-09-09T12:54:30;6.22;;;2.30;;
30243;SDS011;61465;53.652;9.792;2022-09-09T12:56:58;1.73;;;1.17;;
30243;SDS011;61465;53.652;9.792;2022-09-09T12:59:25;7.30;;;1.77;;
30243;SDS011;61465;53.652;9.792;2022-09-09T13:02:00;3.67;;;1.50;;
30243;SDS011;61465;53.652;9.792;2022-09-09T13:04:25;5.27;;;1.37;;
30243;SDS011;61465;53.652;9.792;2022-09-09T13:06:51;3.53;;;2.00;;
30243;SDS011;61465;53.652;9.792;2022-09-09T13:09:17;3.37;;;2.00;;
30243;SDS011;61465;53.652;9.792;2022-09-09T13:11:45;2.70;;;1.33;;
30243;SDS011;61465;53.652;9.792;2022-09-09T13:16:53;4.47;;;1.40;;
30243;SDS011;61465;53.652;9.792;2022-09-09T13:19:24;4.07;;;1.83;;
30243;SDS011;61465;53.652;9.792;2022-09-09T13:21:53;3.97;;;2.05;;
30243;SDS011;61465;53.652;9.792;2022-09-09T13:27:00;6.38;;;1.50;;
30243;SDS011;61465;53.652;9.792;2022-09-09T13:29:50;3.70;;;1.30;;
30243;SDS011;61465;53.652;9.792;2022-09-09T13:32:19;6.43;;;1.40;;
30243;SDS011;61465;53.652;9.792;2022-09-09T13:34:59;4.55;;;1.80;;
30243;SDS011;61465;53.652;9.792;2022-09-09T13:37:38;8.75;;;2.30;;
30243;SDS011;61465;53.652;9.792;2022-09-09T13:40:06;6.70;;;2.30;;
30243;SDS011;61465;53.652;9.792;2022-09-09T13:42:51;5.15;;;2.03;;
30243;SDS011;61465;53.652;9.792;2022-09-09T13:45:22;5.13;;;1.70;;
30243;SDS011;61465;53.652;9.792;2022-09-09T13:47:52;2.63;;;1.10;;
30243;SDS011;61465;53.652;9.792;2022-09-09T13:52:51;1.90;;;1.00;;
30243;SDS011;61465;53.652;9.792;2022-09-09T13:55:18;3.25;;;1.10;;
30243;SDS011;61465;53.652;9.792;2022-09-09T13:57:53;4.38;;;0.90;;
30243;SDS011;61465;53.652;9.792;2022-09-09T14:00:30;1.08;;;0.95;;
30243;SDS011;61465;53.652;9.792;2022-09-09T14:02:57;2.40;;;1.23;;
30243;SDS011;61465;53.652;9.792;2022-09-09T14:05:27;2.95;;;0.90;;
30243;SDS011;61465;53.652;9.792;2022-09-09T14:07:53;3.88;;;0.98;;
30243;SDS011;61465;53.652;9.792;2022-09-09T14:10:19;1.97;;;1.20;;
30243;SDS011;61465;53.652;9.792;2022-09-09T14:12:45;6.40;;;3.30;;
30243;SDS011;61465;53.652;9.792;2022-09-09T14:15:11;3.20;;;1.30;;
30243;SDS011;61465;53.652;9.792;2022-09-09T14:17:37;2.53;;;1.43;;
30243;SDS011;61465;53.652;9.792;2022-09-09T14:20:04;2.50;;;1.60;;
30243;SDS011;61465;53.652;9.792;2022-09-09T14:22:33;5.70;;;1.70;;
30243;SDS011;61465;53.652;9.792;2022-09-09T14:24:58;3.90;;;1.63;;
30243;SDS011;61465;53.652;9.792;2022-09-09T14:27:24;2.40;;;1.80;;
30243;SDS011;61465;53.652;9.792;2022-09-09T14:29:51;5.78;;;1.45;;
30243;SDS011;61465;53.652;9.792;2022-09-09T14:32:17;5.20;;;1.45;;
30243;SDS011;61465;53.652;9.792;2022-09-09T14:34:43;4.33;;;2.00;;
30243;SDS011;61465;53.652;9.792;2022-09-09T14:37:09;2.30;;;1.67;;
30243;SDS011;61465;53.652;9.792;2022-09-09T14:39:34;2.93;;;1.80;;
30243;SDS011;61465;53.652;9.792;2022-09-09T14:42:00;4.10;;;1.87;;
30243;SDS011;61465;53.652;9.792;2022-09-09T14:44:27;3.40;;;2.17;;
30243;SDS011;61465;53.652;9.792;2022-09-09T14:46:52;5.33;;;1.80;;
30243;SDS011;61465;53.652;9.792;2022-09-09T14:49:19;4.53;;;1.70;;
30243;SDS011;61465;53.652;9.792;2022-09-09T14:51:45;8.60;;;2.30;;
30243;SDS011;61465;53.652;9.792;2022-09-09T14:54:11;3.43;;;1.43;;
30243;SDS011;61465;53.652;9.792;2022-09-09T14:56:36;3.80;;;1.83;;
30243;SDS011;61465;53.652;9.792;2022-09-09T14:59:03;3.17;;;2.10;;
30243;SDS011;61465;53.652;9.792;2022-09-09T15:01:29;3.87;;;2.13;;
30243;SDS011;61465;53.652;9.792;2022-09-09T15:06:23;3.30;;;2.10;;
30243;SDS011;61465;53.652;9.792;2022-09-09T15:11:17;5.97;;;2.22;;
30243;SDS011;61465;53.652;9.792;2022-09-09T15:13:43;5.50;;;2.40;;
30243;SDS011;61465;53.652;9.792;2022-09-09T15:16:16;6.72;;;2.63;;
30243;SDS011;61465;53.652;9.792;2022-09-09T15:18:43;3.83;;;2.20;;
30243;SDS011;61465;53.652;9.792;2022-09-09T15:21:14;3.33;;;2.20;;
30243;SDS011;61465;53.652;9.792;2022-09-09T15:23:41;3.78;;;2.08;;
30243;SDS011;61465;53.652;9.792;2022-09-09T15:26:07;6.55;;;1.98;;
30243;SDS011;61465;53.652;9.792;2022-09-09T15:28:34;3.58;;;2.38;;
30243;SDS011;61465;53.652;9.792;2022-09-09T15:31:05;6.00;;;2.08;;
30243;SDS011;61465;53.652;9.792;2022-09-09T15:33:32;5.28;;;2.65;;
30243;SDS011;61465;53.652;9.792;2022-09-09T15:35:58;3.70;;;2.07;;
30243;SDS011;61465;53.652;9.792;2022-09-09T15:38:24;4.97;;;2.93;;
30243;SDS011;61465;53.652;9.792;2022-09-09T15:40:56;3.93;;;2.27;;
30243;SDS011;61465;53.652;9.792;2022-09-09T15:43:22;4.15;;;1.92;;
30243;SDS011;61465;53.652;9.792;2022-09-09T15:45:49;3.60;;;2.50;;
30243;SDS011;61465;53.652;9.792;2022-09-09T15:48:19;8.57;;;4.40;;
30243;SDS011;61465;53.652;9.792;2022-09-09T15:51:00;2.90;;;2.20;;
30243;SDS011;61465;53.652;9.792;2022-09-09T15:53:28;4.65;;;2.45;;
30243;SDS011;61465;53.652;9.792;2022-09-09T15:55:54;3.10;;;2.37;;
30243;SDS011;61465;53.652;9.792;2022-09-09T16:00:46;4.78;;;2.60;;
30243;SDS011;61465;53.652;9.792;2022-09-09T16:03:11;5.30;;;1.87;;
30243;SDS011;61465;53.652;9.792;2022-09-09T16:05:37;4.97;;;2.23;;
30243;SDS011;61465;53.652;9.792;2022-09-09T16:08:03;4.23;;;2.13;;
30243;SDS011;61465;53.652;9.792;2022-09-09T16:10:29;1.80;;;1.70;;
30243;SDS011;61465;53.652;9.792;2022-09-09T16:12:55;6.50;;;2.25;;
30243;SDS011;61465;53.652;9.792;2022-09-09T16:15:21;4.57;;;1.93;;
30243;SDS011;61465;53.652;9.792;2022-09-09T16:17:48;2.80;;;1.58;;
30243;SDS011;61465;53.652;9.792;2022-09-09T16:20:13;6.90;;;2.87;;
30243;SDS011;61465;53.652;9.792;2022-09-09T16:22:39;3.67;;;1.90;;
30243;SDS011;61465;53.652;9.792;2022-09-09T16:25:05;2.10;;;1.40;;
30243;SDS011;61465;53.652;9.792;2022-09-09T16:27:31;5.70;;;1.48;;
30243;SDS011;61465;53.652;9.792;2022-09-09T16:29:57;3.33;;;1.57;;
30243;SDS011;61465;53.652;9.792;2022-09-09T16:32:22;1.50;;;1.40;;
30243;SDS011;61465;53.652;9.792;2022-09-09T16:34:48;2.70;;;1.40;;
30243;SDS011;61465;53.652;9.792;2022-09-09T16:37:13;2.63;;;1.63;;
30243;SDS011;61465;53.652;9.792;2022-09-09T16:39:39;1.63;;;1.13;;
30243;SDS011;61465;53.652;9.792;2022-09-09T16:42:04;2.47;;;1.30;;
30243;SDS011;61465;53.652;9.792;2022-09-09T16:44:30;1.33;;;1.20;;
30243;SDS011;61465;53.652;9.792;2022-09-09T16:46:56;1.30;;;1.20;;
30243;SDS011;61465;53.652;9.792;2022-09-09T16:49:21;3.43;;;1.47;;
30243;SDS011;61465;53.652;9.792;2022-09-09T16:51:50;3.57;;;1.40;;
30243;SDS011;61465;53.652;9.792;2022-09-09T16:54:18;3.70;;;1.20;;
30243;SDS011;61465;53.652;9.792;2022-09-09T16:56:44;4.13;;;1.00;;
30243;SDS011;61465;53.652;9.792;2022-09-09T16:59:12;3.13;;;1.40;;
30243;SDS011;61465;53.652;9.792;2022-09-09T17:01:39;2.60;;;1.30;;
30243;SDS011;61465;53.652;9.792;2022-09-09T17:04:07;4.68;;;1.70;;
30243;SDS011;61465;53.652;9.792;2022-09-09T17:06:35;1.33;;;1.10;;
30243;SDS011;61465;53.652;9.792;2022-09-09T17:09:08;2.97;;;1.55;;
30243;SDS011;61465;53.652;9.792;2022-09-09T17:11:35;7.22;;;4.35;;
30243;SDS011;61465;53.652;9.792;2022-09-09T17:14:02;3.60;;;1.58;;
30243;SDS011;61465;53.652;9.792;2022-09-09T17:16:29;4.40;;;1.90;;
30243;SDS011;61465;53.652;9.792;2022-09-09T17:18:56;1.35;;;1.10;;
30243;SDS011;61465;53.652;9.792;2022-09-09T17:21:24;5.03;;;1.48;;